sensor_id;sensor_type;location;lat;lon;timestamp;P1;durP1;ratioP1;P2;durP2;ratioP2
19705;SDS011;10003;52.506;4.700;2023-03-01T00:01:13;1.10;;;1.10;;
19705;SDS011;10003;52.506;4.700;2023-03-01T00:03:42;1.00;;;1.00;;
19705;SDS011;10003;52.506;4.700;2023-03-01T00:06:12;2.57;;;2.47;;
19705;SDS011;10003;52.506;4.700;2023-03-01T00:08:41;3.00;;;2.83;;
19705;SDS011;10003;52.506;4.700;2023-03-01T00:11:10;4.43;;;4.13;;
19705;SDS011;10003;52.506;4.700;2023-03-01T00:13:40;2.50;;;2.40;;
19705;SDS011;10003;52.506;4.700;2023-03-01T00:16:09;9.33;;;2.50;;
19705;SDS011;10003;52.506;4.700;2023-03-01T00:18:41;1.00;;;1.00;;
19705;SDS011;10003;52.506;4.700;2023-03-01T00:21:15;1.77;;;1.67;;
19705;SDS011;10003;52.506;4.700;2023-03-01T00:23:43;3.73;;;3.43;;
19705;SDS011;10003;52.506;4.700;2023-03-01T00:26:12;4.50;;;4.20;;
19705;SDS011;10003;52.506;4.700;2023-03-01T00:28:41;4.60;;;4.07;;
19705;SDS011;10003;52.506;4.700;2023-03-01T00:31:10;4.00;;;3.80;;
19705;SDS011;10003;52.506;4.700;2023-03-01T00:33:39;3.33;;;3.03;;
19705;SDS011;10003;52.506;4.700;2023-03-01T00:36:09;3.57;;;2.77;;
19705;SDS011;10003;52.506;4.700;2023-03-01T00:38:39;4.13;;;3.77;;
19705;SDS011;10003;52.506;4.700;2023-03-01T00:41:09;3.90;;;3.60;;
19705;SDS011;10003;52.506;4.700;2023-03-01T00:43:37;3.50;;;3.30;;
19705;SDS011;10003;52.506;4.700;2023-03-01T00:46:07;4.17;;;3.87;;
19705;SDS011;10003;52.506;4.700;2023-03-01T00:48:36;4.07;;;3.23;;
19705;SDS011;10003;52.506;4.700;2023-03-01T00:51:05;3.87;;;3.57;;
19705;SDS011;10003;52.506;4.700;2023-03-01T00:53:33;3.57;;;3.37;;
19705;SDS011;10003;52.506;4.700;2023-03-01T00:56:04;4.17;;;3.77;;
19705;SDS011;10003;52.506;4.700;2023-03-01T00:58:34;2.33;;;2.23;;
19705;SDS011;10003;52.506;4.700;2023-03-01T01:01:06;5.40;;;4.47;;
19705;SDS011;10003;52.506;4.700;2023-03-01T01:03:44;6.60;;;5.90;;
19705;SDS011;10003;52.506;4.700;2023-03-01T01:06:13;7.03;;;5.73;;
19705;SDS011;10003;52.506;4.700;2023-03-01T01:08:41;3.47;;;3.00;;
19705;SDS011;10003;52.506;4.700;2023-03-01T01:11:11;2.13;;;2.03;;
19705;SDS011;10003;52.506;4.700;2023-03-01T01:13:40;1.10;;;1.10;;
19705;SDS011;10003;52.506;4.700;2023-03-01T01:16:08;2.03;;;2.03;;
19705;SDS011;10003;52.506;4.700;2023-03-01T01:18:37;1.37;;;1.37;;
19705;SDS011;10003;52.506;4.700;2023-03-01T01:21:07;1.67;;;1.67;;
19705;SDS011;10003;52.506;4.700;2023-03-01T01:23:35;3.40;;;3.17;;
19705;SDS011;10003;52.506;4.700;2023-03-01T01:26:05;2.47;;;2.30;;
19705;SDS011;10003;52.506;4.700;2023-03-01T01:28:35;4.33;;;4.03;;
19705;SDS011;10003;52.506;4.700;2023-03-01T01:31:03;4.70;;;4.30;;
19705;SDS011;10003;52.506;4.700;2023-03-01T01:33:32;4.10;;;3.80;;
19705;SDS011;10003;52.506;4.700;2023-03-01T01:36:01;2.57;;;2.47;;
19705;SDS011;10003;52.506;4.700;2023-03-01T01:38:29;1.30;;;1.30;;
19705;SDS011;10003;52.506;4.700;2023-03-01T01:40:58;2.83;;;2.27;;
19705;SDS011;10003;52.506;4.700;2023-03-01T01:43:27;4.30;;;4.00;;
19705;SDS011;10003;52.506;4.700;2023-03-01T01:45:57;2.20;;;2.10;;
19705;SDS011;10003;52.506;4.700;2023-03-01T01:48:28;1.83;;;1.73;;
19705;SDS011;10003;52.506;4.700;2023-03-01T01:51:07;2.40;;;2.27;;
19705;SDS011;10003;52.506;4.700;2023-03-01T01:53:37;2.83;;;2.23;;
19705;SDS011;10003;52.506;4.700;2023-03-01T01:56:06;4.13;;;3.77;;
19705;SDS011;10003;52.506;4.700;2023-03-01T01:58:35;3.07;;;2.93;;
19705;SDS011;10003;52.506;4.700;2023-03-01T02:01:05;2.60;;;2.40;;
19705;SDS011;10003;52.506;4.700;2023-03-01T02:03:34;2.37;;;2.27;;
19705;SDS011;10003;52.506;4.700;2023-03-01T02:06:12;1.10;;;1.10;;
19705;SDS011;10003;52.506;4.700;2023-03-01T02:08:41;3.67;;;3.40;;
19705;SDS011;10003;52.506;4.700;2023-03-01T02:11:10;2.10;;;2.00;;
19705;SDS011;10003;52.506;4.700;2023-03-01T02:13:41;1.53;;;1.53;;
19705;SDS011;10003;52.506;4.700;2023-03-01T02:16:11;3.00;;;2.80;;
19705;SDS011;10003;52.506;4.700;2023-03-01T02:18:41;2.80;;;2.70;;
19705;SDS011;10003;52.506;4.700;2023-03-01T02:21:13;3.10;;;3.00;;
19705;SDS011;10003;52.506;4.700;2023-03-01T02:23:45;1.07;;;1.07;;
19705;SDS011;10003;52.506;4.700;2023-03-01T02:26:17;4.03;;;3.73;;
19705;SDS011;10003;52.506;4.700;2023-03-01T02:28:48;3.07;;;2.87;;
19705;SDS011;10003;52.506;4.700;2023-03-01T02:31:18;3.37;;;3.17;;
19705;SDS011;10003;52.506;4.700;2023-03-01T02:34:05;3.67;;;2.63;;
19705;SDS011;10003;52.506;4.700;2023-03-01T02:36:35;2.80;;;2.60;;
19705;SDS011;10003;52.506;4.700;2023-03-01T02:39:04;2.60;;;2.30;;
19705;SDS011;10003;52.506;4.700;2023-03-01T02:41:34;2.80;;;2.70;;
19705;SDS011;10003;52.506;4.700;2023-03-01T02:44:05;2.00;;;1.90;;
19705;SDS011;10003;52.506;4.700;2023-03-01T02:46:41;1.40;;;1.40;;
19705;SDS011;10003;52.506;4.700;2023-03-01T02:49:17;4.53;;;2.60;;
19705;SDS011;10003;52.506;4.700;2023-03-01T02:51:48;2.70;;;2.50;;
19705;SDS011;10003;52.506;4.700;2023-03-01T02:54:21;4.63;;;4.23;;
19705;SDS011;10003;52.506;4.700;2023-03-01T02:56:50;1.27;;;1.27;;
19705;SDS011;10003;52.506;4.700;2023-03-01T02:59:21;3.20;;;3.00;;
19705;SDS011;10003;52.506;4.700;2023-03-01T03:01:50;2.50;;;2.30;;
19705;SDS011;10003;52.506;4.700;2023-03-01T03:04:19;1.43;;;1.43;;
19705;SDS011;10003;52.506;4.700;2023-03-01T03:06:48;1.73;;;1.73;;
19705;SDS011;10003;52.506;4.700;2023-03-01T03:09:17;1.10;;;1.10;;
19705;SDS011;10003;52.506;4.700;2023-03-01T03:11:46;1.10;;;1.10;;
19705;SDS011;10003;52.506;4.700;2023-03-01T03:14:15;1.10;;;1.10;;
19705;SDS011;10003;52.506;4.700;2023-03-01T03:16:45;3.43;;;3.23;;
19705;SDS011;10003;52.506;4.700;2023-03-01T03:19:14;2.70;;;2.50;;
19705;SDS011;10003;52.506;4.700;2023-03-01T03:21:43;1.13;;;1.13;;
19705;SDS011;10003;52.506;4.700;2023-03-01T03:24:11;1.63;;;1.50;;
19705;SDS011;10003;52.506;4.700;2023-03-01T03:26:40;1.10;;;1.10;;
19705;SDS011;10003;52.506;4.700;2023-03-01T03:29:08;2.10;;;2.00;;
19705;SDS011;10003;52.506;4.700;2023-03-01T03:31:36;1.97;;;1.90;;
19705;SDS011;10003;52.506;4.700;2023-03-01T03:34:06;2.00;;;1.97;;
19705;SDS011;10003;52.506;4.700;2023-03-01T03:36:37;2.73;;;2.63;;
19705;SDS011;10003;52.506;4.700;2023-03-01T03:39:05;2.47;;;2.37;;
19705;SDS011;10003;52.506;4.700;2023-03-01T03:41:34;5.17;;;4.77;;
19705;SDS011;10003;52.506;4.700;2023-03-01T03:44:02;3.30;;;2.87;;
19705;SDS011;10003;52.506;4.700;2023-03-01T03:46:31;4.13;;;3.87;;
19705;SDS011;10003;52.506;4.700;2023-03-01T03:48:59;6.43;;;5.83;;
19705;SDS011;10003;52.506;4.700;2023-03-01T03:51:29;3.90;;;3.67;;
19705;SDS011;10003;52.506;4.700;2023-03-01T03:53:58;1.30;;;1.30;;
19705;SDS011;10003;52.506;4.700;2023-03-01T03:56:26;2.03;;;1.93;;
19705;SDS011;10003;52.506;4.700;2023-03-01T03:58:55;1.10;;;1.10;;
19705;SDS011;10003;52.506;4.700;2023-03-01T04:01:23;1.10;;;1.10;;
19705;SDS011;10003;52.506;4.700;2023-03-01T04:03:52;1.67;;;1.57;;
19705;SDS011;10003;52.506;4.700;2023-03-01T04:06:22;1.63;;;1.63;;
19705;SDS011;10003;52.506;4.700;2023-03-01T04:08:51;1.10;;;1.10;;
19705;SDS011;10003;52.506;4.700;2023-03-01T04:11:24;1.73;;;1.73;;
19705;SDS011;10003;52.506;4.700;2023-03-01T04:13:56;3.40;;;3.20;;
19705;SDS011;10003;52.506;4.700;2023-03-01T04:16:25;1.10;;;1.10;;
19705;SDS011;10003;52.506;4.700;2023-03-01T04:18:54;2.30;;;2.27;;
19705;SDS011;10003;52.506;4.700;2023-03-01T04:21:22;1.50;;;1.50;;
19705;SDS011;10003;52.506;4.700;2023-03-01T04:23:52;1.37;;;1.37;;
19705;SDS011;10003;52.506;4.700;2023-03-01T04:26:21;3.53;;;3.03;;
19705;SDS011;10003;52.506;4.700;2023-03-01T04:28:49;1.07;;;1.07;;
19705;SDS011;10003;52.506;4.700;2023-03-01T04:31:18;16.03;;;2.33;;
19705;SDS011;10003;52.506;4.700;2023-03-01T04:33:48;1.10;;;1.10;;
19705;SDS011;10003;52.506;4.700;2023-03-01T04:36:19;1.03;;;1.03;;
19705;SDS011;10003;52.506;4.700;2023-03-01T04:38:47;1.00;;;1.00;;
19705;SDS011;10003;52.506;4.700;2023-03-01T04:41:18;2.27;;;2.17;;
19705;SDS011;10003;52.506;4.700;2023-03-01T04:43:47;1.70;;;1.70;;
19705;SDS011;10003;52.506;4.700;2023-03-01T04:46:16;2.90;;;2.63;;
19705;SDS011;10003;52.506;4.700;2023-03-01T04:48:45;3.17;;;2.97;;
19705;SDS011;10003;52.506;4.700;2023-03-01T04:51:14;1.60;;;1.50;;
19705;SDS011;10003;52.506;4.700;2023-03-01T04:53:44;1.07;;;1.07;;
19705;SDS011;10003;52.506;4.700;2023-03-01T04:56:13;2.30;;;2.30;;
19705;SDS011;10003;52.506;4.700;2023-03-01T04:58:43;1.10;;;1.10;;
19705;SDS011;10003;52.506;4.700;2023-03-01T05:01:12;1.30;;;1.30;;
19705;SDS011;10003;52.506;4.700;2023-03-01T05:03:42;1.07;;;1.07;;
19705;SDS011;10003;52.506;4.700;2023-03-01T05:06:11;1.10;;;1.10;;
19705;SDS011;10003;52.506;4.700;2023-03-01T05:08:40;1.77;;;1.67;;
19705;SDS011;10003;52.506;4.700;2023-03-01T05:11:09;1.10;;;1.10;;
19705;SDS011;10003;52.506;4.700;2023-03-01T05:13:38;1.10;;;1.10;;
19705;SDS011;10003;52.506;4.700;2023-03-01T05:16:08;1.00;;;1.00;;
19705;SDS011;10003;52.506;4.700;2023-03-01T05:18:38;2.67;;;2.57;;
19705;SDS011;10003;52.506;4.700;2023-03-01T05:21:07;2.10;;;2.10;;
19705;SDS011;10003;52.506;4.700;2023-03-01T05:23:36;2.23;;;2.13;;
19705;SDS011;10003;52.506;4.700;2023-03-01T05:26:05;1.60;;;1.60;;
19705;SDS011;10003;52.506;4.700;2023-03-01T05:28:55;1.00;;;1.00;;
19705;SDS011;10003;52.506;4.700;2023-03-01T05:31:27;1.30;;;1.30;;
19705;SDS011;10003;52.506;4.700;2023-03-01T05:33:57;3.30;;;3.10;;
19705;SDS011;10003;52.506;4.700;2023-03-01T05:36:25;3.67;;;3.47;;
19705;SDS011;10003;52.506;4.700;2023-03-01T05:38:54;1.10;;;1.10;;
19705;SDS011;10003;52.506;4.700;2023-03-01T05:41:22;1.53;;;1.53;;
19705;SDS011;10003;52.506;4.700;2023-03-01T05:43:51;1.20;;;1.20;;
19705;SDS011;10003;52.506;4.700;2023-03-01T05:46:19;1.10;;;1.10;;
19705;SDS011;10003;52.506;4.700;2023-03-01T05:48:52;5.27;;;4.47;;
19705;SDS011;10003;52.506;4.700;2023-03-01T05:51:21;33.13;;;7.63;;
19705;SDS011;10003;52.506;4.700;2023-03-01T05:53:49;2.63;;;2.43;;
19705;SDS011;10003;52.506;4.700;2023-03-01T05:56:18;1.00;;;1.00;;
19705;SDS011;10003;52.506;4.700;2023-03-01T05:58:48;1.40;;;1.40;;
19705;SDS011;10003;52.506;4.700;2023-03-01T06:01:17;1.00;;;1.00;;
19705;SDS011;10003;52.506;4.700;2023-03-01T06:03:45;1.43;;;1.43;;
19705;SDS011;10003;52.506;4.700;2023-03-01T06:06:15;2.87;;;2.47;;
19705;SDS011;10003;52.506;4.700;2023-03-01T06:08:43;2.57;;;2.53;;
19705;SDS011;10003;52.506;4.700;2023-03-01T06:11:12;1.20;;;1.20;;
19705;SDS011;10003;52.506;4.700;2023-03-01T06:13:40;1.40;;;1.40;;
19705;SDS011;10003;52.506;4.700;2023-03-01T06:16:09;3.90;;;2.33;;
19705;SDS011;10003;52.506;4.700;2023-03-01T06:18:38;16.53;;;5.47;;
19705;SDS011;10003;52.506;4.700;2023-03-01T06:21:06;12.57;;;4.73;;
19705;SDS011;10003;52.506;4.700;2023-03-01T06:23:36;24.87;;;4.80;;
19705;SDS011;10003;52.506;4.700;2023-03-01T06:26:05;1.50;;;1.47;;
19705;SDS011;10003;52.506;4.700;2023-03-01T06:28:34;4.77;;;3.20;;
19705;SDS011;10003;52.506;4.700;2023-03-01T06:31:03;8.70;;;6.17;;
19705;SDS011;10003;52.506;4.700;2023-03-01T06:33:35;8.97;;;6.50;;
19705;SDS011;10003;52.506;4.700;2023-03-01T06:36:07;6.10;;;3.63;;
19705;SDS011;10003;52.506;4.700;2023-03-01T06:38:37;16.40;;;5.73;;
19705;SDS011;10003;52.506;4.700;2023-03-01T06:41:07;20.30;;;5.23;;
19705;SDS011;10003;52.506;4.700;2023-03-01T06:43:35;3.30;;;3.13;;
19705;SDS011;10003;52.506;4.700;2023-03-01T06:46:04;2.20;;;2.10;;
19705;SDS011;10003;52.506;4.700;2023-03-01T06:48:33;1.40;;;1.40;;
19705;SDS011;10003;52.506;4.700;2023-03-01T06:51:01;11.37;;;6.03;;
19705;SDS011;10003;52.506;4.700;2023-03-01T06:53:30;3.80;;;3.03;;
19705;SDS011;10003;52.506;4.700;2023-03-01T06:56:00;40.43;;;6.37;;
19705;SDS011;10003;52.506;4.700;2023-03-01T06:58:28;2.30;;;2.20;;
19705;SDS011;10003;52.506;4.700;2023-03-01T07:00:56;28.17;;;7.27;;
19705;SDS011;10003;52.506;4.700;2023-03-01T07:03:25;1.10;;;1.10;;
19705;SDS011;10003;52.506;4.700;2023-03-01T07:05:53;1.00;;;1.00;;
19705;SDS011;10003;52.506;4.700;2023-03-01T07:08:22;5.10;;;3.83;;
19705;SDS011;10003;52.506;4.700;2023-03-01T07:10:54;1.53;;;1.53;;
19705;SDS011;10003;52.506;4.700;2023-03-01T07:13:24;1.70;;;1.60;;
19705;SDS011;10003;52.506;4.700;2023-03-01T07:15:53;1.53;;;1.53;;
19705;SDS011;10003;52.506;4.700;2023-03-01T07:18:21;1.10;;;1.10;;
19705;SDS011;10003;52.506;4.700;2023-03-01T07:20:50;1.03;;;1.03;;
19705;SDS011;10003;52.506;4.700;2023-03-01T07:23:18;2.10;;;1.90;;
19705;SDS011;10003;52.506;4.700;2023-03-01T07:25:50;4.03;;;3.67;;
19705;SDS011;10003;52.506;4.700;2023-03-01T07:28:19;1.63;;;1.63;;
19705;SDS011;10003;52.506;4.700;2023-03-01T07:30:49;1.70;;;1.70;;
19705;SDS011;10003;52.506;4.700;2023-03-01T07:33:17;1.90;;;1.83;;
19705;SDS011;10003;52.506;4.700;2023-03-01T07:35:46;1.63;;;1.57;;
19705;SDS011;10003;52.506;4.700;2023-03-01T07:38:14;5.03;;;3.67;;
19705;SDS011;10003;52.506;4.700;2023-03-01T07:40:43;2.80;;;2.63;;
19705;SDS011;10003;52.506;4.700;2023-03-01T07:43:11;2.67;;;2.47;;
19705;SDS011;10003;52.506;4.700;2023-03-01T07:45:40;3.07;;;2.87;;
19705;SDS011;10003;52.506;4.700;2023-03-01T07:48:10;2.80;;;2.60;;
19705;SDS011;10003;52.506;4.700;2023-03-01T07:50:38;2.37;;;2.10;;
19705;SDS011;10003;52.506;4.700;2023-03-01T07:53:07;2.57;;;2.37;;
19705;SDS011;10003;52.506;4.700;2023-03-01T07:55:35;5.50;;;4.43;;
19705;SDS011;10003;52.506;4.700;2023-03-01T07:58:04;1.93;;;1.83;;
19705;SDS011;10003;52.506;4.700;2023-03-01T08:00:32;1.20;;;1.20;;
19705;SDS011;10003;52.506;4.700;2023-03-01T08:03:01;2.47;;;2.37;;
19705;SDS011;10003;52.506;4.700;2023-03-01T08:05:30;1.57;;;1.57;;
19705;SDS011;10003;52.506;4.700;2023-03-01T08:08:00;3.33;;;2.90;;
19705;SDS011;10003;52.506;4.700;2023-03-01T08:10:28;3.10;;;2.80;;
19705;SDS011;10003;52.506;4.700;2023-03-01T08:12:56;1.10;;;1.10;;
19705;SDS011;10003;52.506;4.700;2023-03-01T08:15:25;7.33;;;5.40;;
19705;SDS011;10003;52.506;4.700;2023-03-01T08:17:53;4.40;;;4.00;;
19705;SDS011;10003;52.506;4.700;2023-03-01T08:20:22;2.23;;;2.10;;
19705;SDS011;10003;52.506;4.700;2023-03-01T08:22:51;6.07;;;5.47;;
19705;SDS011;10003;52.506;4.700;2023-03-01T08:25:20;4.80;;;3.47;;
19705;SDS011;10003;52.506;4.700;2023-03-01T08:27:48;2.27;;;2.13;;
19705;SDS011;10003;52.506;4.700;2023-03-01T08:30:17;5.80;;;4.80;;
19705;SDS011;10003;52.506;4.700;2023-03-01T08:32:46;3.20;;;3.10;;
19705;SDS011;10003;52.506;4.700;2023-03-01T08:35:15;2.00;;;1.90;;
19705;SDS011;10003;52.506;4.700;2023-03-01T08:37:43;5.00;;;3.50;;
19705;SDS011;10003;52.506;4.700;2023-03-01T08:40:13;4.33;;;3.20;;
19705;SDS011;10003;52.506;4.700;2023-03-01T08:42:42;6.07;;;5.33;;
19705;SDS011;10003;52.506;4.700;2023-03-01T08:45:11;3.80;;;3.60;;
19705;SDS011;10003;52.506;4.700;2023-03-01T08:47:40;4.33;;;4.03;;
19705;SDS011;10003;52.506;4.700;2023-03-01T08:50:09;5.83;;;4.50;;
19705;SDS011;10003;52.506;4.700;2023-03-01T08:52:37;5.47;;;4.90;;
19705;SDS011;10003;52.506;4.700;2023-03-01T08:55:07;3.73;;;3.53;;
19705;SDS011;10003;52.506;4.700;2023-03-01T08:57:38;4.80;;;4.40;;
19705;SDS011;10003;52.506;4.700;2023-03-01T09:00:07;1.00;;;1.00;;
19705;SDS011;10003;52.506;4.700;2023-03-01T09:02:36;3.87;;;3.67;;
19705;SDS011;10003;52.506;4.700;2023-03-01T09:05:05;7.40;;;5.43;;
19705;SDS011;10003;52.506;4.700;2023-03-01T09:07:33;6.00;;;5.50;;
19705;SDS011;10003;52.506;4.700;2023-03-01T09:10:02;12.83;;;9.00;;
19705;SDS011;10003;52.506;4.700;2023-03-01T09:12:31;4.87;;;4.47;;
19705;SDS011;10003;52.506;4.700;2023-03-01T09:15:01;4.37;;;3.70;;
19705;SDS011;10003;52.506;4.700;2023-03-01T09:17:29;12.13;;;8.43;;
19705;SDS011;10003;52.506;4.700;2023-03-01T09:19:58;10.40;;;7.60;;
19705;SDS011;10003;52.506;4.700;2023-03-01T09:22:27;3.87;;;3.57;;
19705;SDS011;10003;52.506;4.700;2023-03-01T09:24:55;12.60;;;10.03;;
19705;SDS011;10003;52.506;4.700;2023-03-01T09:27:25;8.10;;;5.23;;
19705;SDS011;10003;52.506;4.700;2023-03-01T09:29:54;7.17;;;5.37;;
19705;SDS011;10003;52.506;4.700;2023-03-01T09:32:24;15.57;;;11.60;;
19705;SDS011;10003;52.506;4.700;2023-03-01T09:34:53;14.93;;;10.63;;
19705;SDS011;10003;52.506;4.700;2023-03-01T09:37:34;13.03;;;9.90;;
19705;SDS011;10003;52.506;4.700;2023-03-01T09:40:05;2.13;;;2.03;;
19705;SDS011;10003;52.506;4.700;2023-03-01T09:42:34;13.53;;;10.63;;
19705;SDS011;10003;52.506;4.700;2023-03-01T09:45:04;14.30;;;11.60;;
19705;SDS011;10003;52.506;4.700;2023-03-01T09:47:35;12.30;;;8.67;;
19705;SDS011;10003;52.506;4.700;2023-03-01T09:50:04;11.50;;;8.70;;
19705;SDS011;10003;52.506;4.700;2023-03-01T09:52:36;9.87;;;8.03;;
19705;SDS011;10003;52.506;4.700;2023-03-01T09:55:08;22.33;;;15.37;;
19705;SDS011;10003;52.506;4.700;2023-03-01T09:57:43;13.53;;;8.97;;
19705;SDS011;10003;52.506;4.700;2023-03-01T10:00:26;23.60;;;17.57;;
19705;SDS011;10003;52.506;4.700;2023-03-01T10:02:59;8.50;;;5.83;;
19705;SDS011;10003;52.506;4.700;2023-03-01T10:05:41;17.63;;;12.77;;
19705;SDS011;10003;52.506;4.700;2023-03-01T10:08:19;10.27;;;8.33;;
19705;SDS011;10003;52.506;4.700;2023-03-01T10:10:51;6.10;;;5.40;;
19705;SDS011;10003;52.506;4.700;2023-03-01T10:13:21;13.13;;;8.73;;
19705;SDS011;10003;52.506;4.700;2023-03-01T10:15:52;13.50;;;10.53;;
19705;SDS011;10003;52.506;4.700;2023-03-01T10:18:24;11.90;;;9.13;;
19705;SDS011;10003;52.506;4.700;2023-03-01T10:20:55;9.10;;;6.43;;
19705;SDS011;10003;52.506;4.700;2023-03-01T10:23:24;27.23;;;16.80;;
19705;SDS011;10003;52.506;4.700;2023-03-01T10:25:56;14.37;;;9.80;;
19705;SDS011;10003;52.506;4.700;2023-03-01T10:28:31;10.60;;;7.83;;
19705;SDS011;10003;52.506;4.700;2023-03-01T10:31:04;5.03;;;4.53;;
19705;SDS011;10003;52.506;4.700;2023-03-01T10:33:42;14.10;;;9.67;;
19705;SDS011;10003;52.506;4.700;2023-03-01T10:36:10;15.70;;;10.20;;
19705;SDS011;10003;52.506;4.700;2023-03-01T10:38:48;12.20;;;10.07;;
19705;SDS011;10003;52.506;4.700;2023-03-01T10:41:19;4.47;;;3.70;;
19705;SDS011;10003;52.506;4.700;2023-03-01T10:43:50;10.70;;;8.83;;
19705;SDS011;10003;52.506;4.700;2023-03-01T10:46:23;23.47;;;14.83;;
19705;SDS011;10003;52.506;4.700;2023-03-01T10:51:50;21.37;;;15.20;;
19705;SDS011;10003;52.506;4.700;2023-03-01T10:54:20;17.90;;;16.00;;
19705;SDS011;10003;52.506;4.700;2023-03-01T10:56:49;24.10;;;16.03;;
19705;SDS011;10003;52.506;4.700;2023-03-01T10:59:26;8.70;;;7.80;;
19705;SDS011;10003;52.506;4.700;2023-03-01T11:02:15;13.90;;;10.10;;
19705;SDS011;10003;52.506;4.700;2023-03-01T11:05:21;13.20;;;7.37;;
19705;SDS011;10003;52.506;4.700;2023-03-01T11:08:01;9.57;;;8.57;;
19705;SDS011;10003;52.506;4.700;2023-03-01T11:10:30;4.67;;;4.23;;
19705;SDS011;10003;52.506;4.700;2023-03-01T11:13:06;10.80;;;7.90;;
19705;SDS011;10003;52.506;4.700;2023-03-01T11:15:35;5.67;;;5.27;;
19705;SDS011;10003;52.506;4.700;2023-03-01T11:18:04;5.20;;;4.10;;
19705;SDS011;10003;52.506;4.700;2023-03-01T11:20:45;7.20;;;6.23;;
19705;SDS011;10003;52.506;4.700;2023-03-01T11:23:16;7.53;;;4.30;;
19705;SDS011;10003;52.506;4.700;2023-03-01T11:25:46;15.23;;;7.37;;
19705;SDS011;10003;52.506;4.700;2023-03-01T11:28:17;6.13;;;4.77;;
19705;SDS011;10003;52.506;4.700;2023-03-01T11:30:47;5.53;;;5.13;;
19705;SDS011;10003;52.506;4.700;2023-03-01T11:33:34;5.33;;;4.30;;
19705;SDS011;10003;52.506;4.700;2023-03-01T11:36:05;8.57;;;7.63;;
19705;SDS011;10003;52.506;4.700;2023-03-01T11:38:36;7.07;;;6.07;;
19705;SDS011;10003;52.506;4.700;2023-03-01T11:41:08;7.43;;;5.80;;
19705;SDS011;10003;52.506;4.700;2023-03-01T11:43:40;7.10;;;6.43;;
19705;SDS011;10003;52.506;4.700;2023-03-01T11:49:02;6.57;;;5.80;;
19705;SDS011;10003;52.506;4.700;2023-03-01T11:51:38;4.77;;;4.30;;
19705;SDS011;10003;52.506;4.700;2023-03-01T11:54:20;8.03;;;7.07;;
19705;SDS011;10003;52.506;4.700;2023-03-01T11:56:53;4.83;;;4.43;;
19705;SDS011;10003;52.506;4.700;2023-03-01T11:59:27;6.23;;;5.67;;
19705;SDS011;10003;52.506;4.700;2023-03-01T12:02:14;5.40;;;4.90;;
19705;SDS011;10003;52.506;4.700;2023-03-01T12:07:32;6.50;;;5.90;;
19705;SDS011;10003;52.506;4.700;2023-03-01T12:10:15;18.60;;;4.17;;
19705;SDS011;10003;52.506;4.700;2023-03-01T12:12:50;44.33;;;6.33;;
19705;SDS011;10003;52.506;4.700;2023-03-01T12:18:22;8.67;;;7.70;;
19705;SDS011;10003;52.506;4.700;2023-03-01T12:20:58;9.30;;;5.57;;
19705;SDS011;10003;52.506;4.700;2023-03-01T12:26:27;8.57;;;7.20;;
19705;SDS011;10003;52.506;4.700;2023-03-01T12:29:14;6.30;;;5.70;;
19705;SDS011;10003;52.506;4.700;2023-03-01T12:37:36;7.23;;;5.73;;
19705;SDS011;10003;52.506;4.700;2023-03-01T12:40:18;9.03;;;6.80;;
19705;SDS011;10003;52.506;4.700;2023-03-01T12:42:51;7.73;;;6.73;;
19705;SDS011;10003;52.506;4.700;2023-03-01T12:48:11;6.60;;;4.77;;
19705;SDS011;10003;52.506;4.700;2023-03-01T12:50:42;8.30;;;6.37;;
19705;SDS011;10003;52.506;4.700;2023-03-01T12:53:16;7.77;;;5.70;;
19705;SDS011;10003;52.506;4.700;2023-03-01T12:55:48;5.70;;;3.97;;
19705;SDS011;10003;52.506;4.700;2023-03-01T12:58:20;9.83;;;7.17;;
19705;SDS011;10003;52.506;4.700;2023-03-01T13:03:55;9.30;;;7.37;;
19705;SDS011;10003;52.506;4.700;2023-03-01T13:06:29;6.03;;;5.47;;
19705;SDS011;10003;52.506;4.700;2023-03-01T13:09:13;7.23;;;5.30;;
19705;SDS011;10003;52.506;4.700;2023-03-01T13:11:42;6.67;;;5.40;;
19705;SDS011;10003;52.506;4.700;2023-03-01T13:16:59;8.20;;;7.37;;
19705;SDS011;10003;52.506;4.700;2023-03-01T13:19:30;10.00;;;6.80;;
19705;SDS011;10003;52.506;4.700;2023-03-01T13:21:58;9.23;;;8.03;;
19705;SDS011;10003;52.506;4.700;2023-03-01T13:24:28;9.73;;;7.27;;
19705;SDS011;10003;52.506;4.700;2023-03-01T13:27:21;7.03;;;6.20;;
19705;SDS011;10003;52.506;4.700;2023-03-01T13:29:56;8.73;;;7.23;;
19705;SDS011;10003;52.506;4.700;2023-03-01T13:32:27;6.87;;;6.17;;
19705;SDS011;10003;52.506;4.700;2023-03-01T13:40:57;8.23;;;6.80;;
19705;SDS011;10003;52.506;4.700;2023-03-01T13:43:31;9.83;;;7.43;;
19705;SDS011;10003;52.506;4.700;2023-03-01T13:46:07;17.83;;;11.73;;
19705;SDS011;10003;52.506;4.700;2023-03-01T13:49:11;9.43;;;8.47;;
19705;SDS011;10003;52.506;4.700;2023-03-01T13:54:54;11.70;;;9.40;;
19705;SDS011;10003;52.506;4.700;2023-03-01T13:57:30;18.10;;;13.37;;
19705;SDS011;10003;52.506;4.700;2023-03-01T14:00:02;6.33;;;5.50;;
19705;SDS011;10003;52.506;4.700;2023-03-01T14:02:44;18.83;;;10.47;;
19705;SDS011;10003;52.506;4.700;2023-03-01T14:05:57;12.83;;;7.33;;
19705;SDS011;10003;52.506;4.700;2023-03-01T14:08:41;13.60;;;12.17;;
19705;SDS011;10003;52.506;4.700;2023-03-01T14:14:17;9.73;;;7.37;;
19705;SDS011;10003;52.506;4.700;2023-03-01T14:16:57;11.53;;;7.67;;
19705;SDS011;10003;52.506;4.700;2023-03-01T14:19:34;18.23;;;13.87;;
19705;SDS011;10003;52.506;4.700;2023-03-01T14:22:18;8.37;;;5.90;;
19705;SDS011;10003;52.506;4.700;2023-03-01T14:24:51;17.87;;;11.60;;
19705;SDS011;10003;52.506;4.700;2023-03-01T14:27:20;11.20;;;9.43;;
19705;SDS011;10003;52.506;4.700;2023-03-01T14:30:04;11.87;;;9.83;;
19705;SDS011;10003;52.506;4.700;2023-03-01T14:32:38;18.00;;;13.00;;
19705;SDS011;10003;52.506;4.700;2023-03-01T14:35:21;12.20;;;10.90;;
19705;SDS011;10003;52.506;4.700;2023-03-01T14:37:56;9.67;;;8.70;;
19705;SDS011;10003;52.506;4.700;2023-03-01T14:40:27;7.77;;;6.03;;
19705;SDS011;10003;52.506;4.700;2023-03-01T14:43:02;10.37;;;9.27;;
19705;SDS011;10003;52.506;4.700;2023-03-01T14:45:39;9.73;;;8.73;;
19705;SDS011;10003;52.506;4.700;2023-03-01T14:48:31;8.57;;;7.10;;
19705;SDS011;10003;52.506;4.700;2023-03-01T14:51:04;13.60;;;12.00;;
19705;SDS011;10003;52.506;4.700;2023-03-01T14:53:34;11.83;;;9.97;;
19705;SDS011;10003;52.506;4.700;2023-03-01T14:56:16;14.40;;;9.10;;
19705;SDS011;10003;52.506;4.700;2023-03-01T14:58:46;13.50;;;9.60;;
19705;SDS011;10003;52.506;4.700;2023-03-01T15:01:15;13.13;;;9.03;;
19705;SDS011;10003;52.506;4.700;2023-03-01T15:03:45;9.03;;;8.13;;
19705;SDS011;10003;52.506;4.700;2023-03-01T15:06:17;12.47;;;10.53;;
19705;SDS011;10003;52.506;4.700;2023-03-01T15:08:51;6.60;;;5.83;;
19705;SDS011;10003;52.506;4.700;2023-03-01T15:11:27;10.87;;;9.07;;
19705;SDS011;10003;52.506;4.700;2023-03-01T15:13:57;10.53;;;8.40;;
19705;SDS011;10003;52.506;4.700;2023-03-01T15:16:26;9.60;;;8.43;;
19705;SDS011;10003;52.506;4.700;2023-03-01T15:18:56;13.07;;;7.50;;
19705;SDS011;10003;52.506;4.700;2023-03-01T15:21:26;10.07;;;9.00;;
19705;SDS011;10003;52.506;4.700;2023-03-01T15:24:05;9.43;;;6.80;;
19705;SDS011;10003;52.506;4.700;2023-03-01T15:26:39;10.23;;;7.50;;
19705;SDS011;10003;52.506;4.700;2023-03-01T15:29:11;10.40;;;9.23;;
19705;SDS011;10003;52.506;4.700;2023-03-01T15:31:53;13.07;;;10.70;;
19705;SDS011;10003;52.506;4.700;2023-03-01T15:34:30;7.90;;;7.00;;
19705;SDS011;10003;52.506;4.700;2023-03-01T15:37:15;7.73;;;7.07;;
19705;SDS011;10003;52.506;4.700;2023-03-01T15:40:22;11.87;;;10.67;;
19705;SDS011;10003;52.506;4.700;2023-03-01T15:43:00;10.87;;;9.77;;
19705;SDS011;10003;52.506;4.700;2023-03-01T15:45:34;7.67;;;6.90;;
19705;SDS011;10003;52.506;4.700;2023-03-01T15:48:13;10.23;;;9.10;;
19705;SDS011;10003;52.506;4.700;2023-03-01T15:50:46;12.60;;;9.27;;